Time;durP1;ratioP1;P1;durP2;ratioP2;P2;SDS_P1;SDS_P2;PMS_P1;PMS_P2;Temp;Humidity;BMP_temperature;BMP_pressure;BME280_temperature;BME280_humidity;BME280_pressure;Samples;Min_cycle;Max_cycle;Signal;HPM_P1;HPM_P2
2023/09/09 00:00:58;;;;;;;147.02;64.95;;;;;;;18.74;100.00;101692.81;6063162;19;20018;-72
2023/09/09 00:03:03;;;;;;;145.98;64.97;;;;;;;18.73;100.00;101696.44;6062950;19;20303;-71
2023/09/09 00:05:09;;;;;;;148.60;64.75;;;;;;;18.74;100.00;101688.31;6069781;19;20003;-73
2023/09/09 00:07:14;;;;;;;139.65;63.13;;;;;;;18.71;100.00;101701.84;6078300;19;20697;-73
2023/09/09 00:09:17;;;;;;;128.98;63.13;;;;;;;18.69;100.00;101695.75;6074691;19;20023;-73
2023/09/09 00:11:22;;;;;;;141.63;64.75;;;;;;;18.63;100.00;101696.97;6069503;19;20019;-73
2023/09/09 00:13:25;;;;;;;142.15;66.72;;;;;;;18.57;100.00;101696.50;6065996;19;20035;-71
2023/09/09 00:15:30;;;;;;;127.18;61.28;;;;;;;18.51;100.00;101700.41;6061432;19;20014;-73
2023/09/09 00:17:38;;;;;;;120.10;60.85;;;;;;;18.50;100.00;101706.66;6063540;19;20014;-71
2023/09/09 00:19:43;;;;;;;125.97;57.05;;;;;;;18.47;100.00;101696.19;6065116;19;20013;-72
2023/09/09 00:21:49;;;;;;;110.32;58.00;;;;;;;18.37;100.00;101697.69;6069338;19;20323;-72
2023/09/09 00:23:55;;;;;;;113.47;58.15;;;;;;;18.37;100.00;101695.88;6068496;19;20517;-71
2023/09/09 00:26:00;;;;;;;103.88;53.67;;;;;;;18.32;100.00;101692.63;6068699;19;20788;-71
2023/09/09 00:28:06;;;;;;;105.07;51.20;;;;;;;18.25;100.00;101701.09;6063391;19;20080;-72
2023/09/09 00:30:12;;;;;;;108.35;55.25;;;;;;;18.19;100.00;101696.97;6073885;19;20657;-73
2023/09/09 00:32:17;;;;;;;95.57;52.25;;;;;;;18.17;100.00;101696.22;6064450;19;20273;-73
2023/09/09 00:34:25;;;;;;;107.95;55.40;;;;;;;18.08;100.00;101694.09;6074467;19;20006;-71
2023/09/09 00:36:30;;;;;;;112.95;57.42;;;;;;;18.06;100.00;101693.31;6068343;19;20043;-72
2023/09/09 00:38:35;;;;;;;102.45;54.58;;;;;;;18.04;100.00;101692.56;6066308;19;20011;-73
2023/09/09 00:40:43;;;;;;;93.30;49.03;;;;;;;17.99;100.00;101691.03;6069172;19;20017;-71
2023/09/09 00:42:48;;;;;;;95.55;50.13;;;;;;;17.93;100.00;101695.81;6077171;19;20473;-71
2023/09/09 00:44:54;;;;;;;97.88;51.05;;;;;;;17.89;100.00;101694.31;6078358;19;20057;-69
2023/09/09 00:47:00;;;;;;;85.07;48.50;;;;;;;17.85;100.00;101692.75;6077200;19;20528;-69
2023/09/09 00:49:06;;;;;;;96.10;48.80;;;;;;;17.83;100.00;101687.53;6073805;19;20423;-69
2023/09/09 00:51:15;;;;;;;103.10;53.78;;;;;;;17.77;100.00;101686.06;6080294;19;20019;-69
2023/09/09 00:53:20;;;;;;;96.88;51.33;;;;;;;17.72;100.00;101682.81;6066078;19;20307;-68
2023/09/09 00:55:27;;;;;;;93.35;51.10;;;;;;;17.75;100.00;101687.09;6071909;19;20052;-69
2023/09/09 00:57:32;;;;;;;110.22;54.00;;;;;;;17.71;100.00;101680.22;6068973;19;20471;-67
2023/09/09 00:59:38;;;;;;;119.93;55.58;;;;;;;17.73;100.00;101683.66;6068757;19;20481;-70
2023/09/09 01:01:43;;;;;;;101.97;55.05;;;;;;;17.69;100.00;101682.13;6069952;19;20422;-69
2023/09/09 01:03:51;;;;;;;101.47;53.38;;;;;;;17.66;100.00;101683.13;6065126;19;20531;-68
2023/09/09 01:05:59;;;;;;;101.07;52.10;;;;;;;17.63;100.00;101678.00;6072067;19;20228;-70
2023/09/09 01:08:08;;;;;;;101.63;51.90;;;;;;;17.60;100.00;101677.34;6060219;19;20560;-70
2023/09/09 01:10:17;;;;;;;100.07;52.47;;;;;;;17.59;100.00;101681.81;6062834;19;20018;-69
2023/09/09 01:12:24;;;;;;;110.63;52.20;;;;;;;17.55;100.00;101680.25;6060960;19;20274;-68
2023/09/09 01:14:29;;;;;;;101.13;51.72;;;;;;;17.51;100.00;101679.56;6067450;19;20015;-69
2023/09/09 01:16:34;;;;;;;112.75;54.70;;;;;;;17.46;100.00;101686.09;6062152;19;20014;-69
2023/09/09 01:18:40;;;;;;;110.88;55.95;;;;;;;17.47;100.00;101680.69;6065693;19;20535;-69
2023/09/09 01:20:49;;;;;;;106.00;53.67;;;;;;;17.45;100.00;101685.22;6064894;19;20303;-68
2023/09/09 01:22:57;;;;;;;89.45;48.60;;;;;;;17.42;100.00;101690.69;6068895;19;20031;-68
2023/09/09 01:25:03;;;;;;;117.72;54.67;;;;;;;17.39;100.00;101685.56;6068700;19;20090;-68
2023/09/09 01:27:09;;;;;;;110.72;54.85;;;;;;;17.34;100.00;101687.63;6066573;19;20432;-68
2023/09/09 01:29:15;;;;;;;111.88;57.08;;;;;;;17.26;100.00;101684.53;6062178;19;20098;-68
2023/09/09 01:31:20;;;;;;;102.43;50.15;;;;;;;17.27;100.00;101684.47;6066086;19;20578;-69
2023/09/09 01:33:22;;;;;;;100.65;51.15;;;;;;;17.27;100.00;101679.16;6066801;19;20473;-68
2023/09/09 01:35:28;;;;;;;106.88;54.00;;;;;;;17.29;100.00;101681.69;6070045;19;20390;-68
2023/09/09 01:37:34;;;;;;;94.18;49.35;;;;;;;17.27;100.00;101675.59;6059867;19;20014;-68
2023/09/09 01:39:41;;;;;;;108.88;56.67;;;;;;;17.27;100.00;101680.91;6065638;19;20085;-68
2023/09/09 01:41:47;;;;;;;119.03;61.13;;;;;;;17.23;100.00;101682.03;6067209;19;20286;-68
2023/09/09 01:43:52;;;;;;;110.75;57.50;;;;;;;17.19;100.00;101675.16;6070967;19;20374;-69
2023/09/09 01:46:00;;;;;;;112.93;56.08;;;;;;;17.17;100.00;101679.69;6064994;19;20513;-68
2023/09/09 01:48:04;;;;;;;122.13;61.28;;;;;;;17.19;100.00;101678.69;6056202;19;20339;-67
2023/09/09 01:50:11;;;;;;;127.15;65.30;;;;;;;17.17;100.00;101679.69;6061928;19;20299;-70
2023/09/09 01:52:16;;;;;;;138.25;67.90;;;;;;;17.13;100.00;101678.19;6059192;19;20014;-68
2023/09/09 01:54:21;;;;;;;139.25;65.45;;;;;;;17.13;100.00;101672.88;6060989;19;20591;-69
2023/09/09 01:56:29;;;;;;;132.88;66.40;;;;;;;17.08;100.00;101681.94;6062583;19;20078;-68
2023/09/09 01:58:32;;;;;;;129.20;65.90;;;;;;;17.08;100.00;101679.28;6066497;19;20011;-69
2023/09/09 02:00:37;;;;;;;134.70;66.30;;;;;;;17.04;100.00;101680.41;6060033;19;21143;-70
2023/09/09 02:02:42;;;;;;;134.90;66.13;;;;;;;17.00;100.00;101683.28;6061374;19;20328;-70
2023/09/09 02:04:48;;;;;;;134.23;66.00;;;;;;;16.94;100.00;101679.19;6056573;19;20053;-69
2023/09/09 02:06:53;;;;;;;125.88;59.97;;;;;;;16.93;100.00;101685.44;6063214;19;20112;-69
2023/09/09 02:09:01;;;;;;;123.35;62.70;;;;;;;16.89;100.00;101684.72;6066181;19;20006;-70
2023/09/09 02:11:06;;;;;;;132.82;67.32;;;;;;;16.81;100.00;101689.59;6068992;19;20311;-70
2023/09/09 02:13:16;;;;;;;172.95;80.20;;;;;;;16.76;100.00;101680.97;6076315;19;20007;-69
2023/09/09 02:15:21;;;;;;;215.40;93.07;;;;;;;16.72;100.00;101683.88;6076823;19;20037;-70
2023/09/09 02:17:29;;;;;;;231.93;103.60;;;;;;;16.71;100.00;101682.16;6078732;19;20014;-69
2023/09/09 02:19:34;;;;;;;290.90;121.63;;;;;;;16.66;100.00;101679.75;6075760;19;20151;-68
2023/09/09 02:21:39;;;;;;;309.27;131.70;;;;;;;16.61;100.00;101680.00;6072644;19;20082;-70
2023/09/09 02:23:47;;;;;;;386.63;155.70;;;;;;;16.66;100.00;101685.91;6076939;19;20668;-68
2023/09/09 02:25:52;;;;;;;433.45;183.23;;;;;;;16.59;100.00;101684.53;6076390;19;20044;-68
2023/09/09 02:27:58;;;;;;;448.98;182.45;;;;;;;16.50;100.00;101674.38;6073737;19;20006;-69
2023/09/09 02:30:06;;;;;;;514.85;208.70;;;;;;;16.46;100.00;101678.16;6079816;19;20330;-69
2023/09/09 02:32:11;;;;;;;512.97;213.02;;;;;;;16.51;100.00;101670.81;6058345;19;20102;-69
2023/09/09 02:34:13;;;;;;;512.08;209.50;;;;;;;16.52;100.00;101669.84;6067704;19;20373;-69
2023/09/09 02:36:18;;;;;;;494.73;206.85;;;;;;;16.52;100.00;101675.16;6068929;19;20427;-69
2023/09/09 02:38:24;;;;;;;489.58;204.40;;;;;;;16.56;100.00;101666.13;6077044;19;21336;-71
2023/09/09 02:40:29;;;;;;;502.13;201.98;;;;;;;16.59;100.00;101667.75;6070606;19;20398;-71
2023/09/09 02:42:34;;;;;;;473.63;193.25;;;;;;;16.62;100.00;101664.94;6077667;19;20499;-71
2023/09/09 02:44:36;;;;;;;465.23;188.02;;;;;;;16.66;100.00;101672.63;6080283;19;20019;-71
2023/09/09 02:46:45;;;;;;;465.88;179.77;;;;;;;16.70;100.00;101660.06;6081647;19;20014;-72
2023/09/09 02:48:50;;;;;;;474.58;183.90;;;;;;;16.70;100.00;101664.53;6080389;19;20015;-71
2023/09/09 02:50:55;;;;;;;466.60;182.00;;;;;;;16.69;100.00;101666.31;6082660;19;20010;-72
2023/09/09 02:53:01;;;;;;;454.00;172.57;;;;;;;16.68;100.00;101667.25;6076826;19;20194;-71
2023/09/09 02:55:07;;;;;;;445.95;160.40;;;;;;;16.64;100.00;101663.03;6087593;19;20374;-71
2023/09/09 02:57:09;;;;;;;409.50;153.07;;;;;;;16.66;100.00;101659.34;6086109;19;20487;-71
2023/09/09 02:59:15;;;;;;;372.48;142.98;;;;;;;16.68;100.00;101657.50;6083096;19;20039;-72
2023/09/09 03:01:21;;;;;;;372.77;134.02;;;;;;;16.76;100.00;101669.50;6082790;19;20010;-74
2023/09/09 03:03:28;;;;;;;343.33;133.90;;;;;;;16.77;100.00;101660.59;6082013;19;20065;-72
2023/09/09 03:05:34;;;;;;;315.65;122.00;;;;;;;16.81;100.00;101662.19;6082605;19;20023;-71
2023/09/09 03:07:39;;;;;;;295.70;111.18;;;;;;;16.78;100.00;101651.75;6076125;19;20006;-72
2023/09/09 03:09:45;;;;;;;272.92;104.97;;;;;;;16.77;100.00;101655.28;6076645;19;20328;-73
2023/09/09 03:11:52;;;;;;;257.65;96.90;;;;;;;16.74;100.00;101666.06;6081186;19;20043;-71
2023/09/09 03:13:59;;;;;;;242.13;93.57;;;;;;;16.70;100.00;101664.53;6079157;19;20519;-74
2023/09/09 03:16:09;;;;;;;245.70;92.43;;;;;;;16.68;100.00;101662.78;6073761;19;20344;-72
2023/09/09 03:18:17;;;;;;;220.15;85.45;;;;;;;16.70;100.00;101669.84;6056249;19;20371;-72
2023/09/09 03:20:25;;;;;;;222.88;87.95;;;;;;;16.71;100.00;101666.25;6076553;19;20300;-71
2023/09/09 03:22:31;;;;;;;193.32;73.72;;;;;;;16.75;100.00;101665.16;6079561;19;20018;-73
2023/09/09 03:24:36;;;;;;;199.07;74.47;;;;;;;16.72;100.00;101662.63;6081040;19;20035;-73
2023/09/09 03:26:43;;;;;;;153.90;58.53;;;;;;;16.72;100.00;101663.50;6083344;19;20089;-73
2023/09/09 03:28:48;;;;;;;139.35;55.75;;;;;;;16.72;100.00;101665.28;6077758;19;20051;-73
2023/09/09 03:31:01;;;;;;;135.90;53.78;;;;;;;16.67;100.00;101662.91;6079167;19;20424;-73
2023/09/09 03:33:06;;;;;;;;;;;;;;;16.65;100.00;101668.28;6082426;19;20292;-72
2023/09/09 03:35:12;;;;;;;108.75;46.20;;;;;;;16.74;100.00;101666.06;6081009;19;19982;-72
2023/09/09 03:37:21;;;;;;;94.50;42.75;;;;;;;16.79;100.00;101661.41;6078253;19;20027;-72
2023/09/09 03:39:27;;;;;;;102.30;40.75;;;;;;;16.74;100.00;101660.75;6075473;19;20014;-72
2023/09/09 03:41:35;;;;;;;101.32;41.38;;;;;;;16.75;100.00;101666.00;6077116;19;20014;-71
2023/09/09 03:43:40;;;;;;;106.90;45.15;;;;;;;16.79;100.00;101659.59;6076014;19;20007;-71
2023/09/09 03:45:48;;;;;;;109.95;41.67;;;;;;;16.82;100.00;101663.88;6072579;19;20055;-72
2023/09/09 03:47:54;;;;;;;109.93;40.38;;;;;;;16.83;100.00;101663.81;6076069;19;20046;-72
2023/09/09 03:49:56;;;;;;;112.32;45.50;;;;;;;16.86;100.00;101663.66;6075938;19;20010;-71
2023/09/09 03:52:02;;;;;;;104.70;46.58;;;;;;;16.92;100.00;101661.59;6076914;19;20444;-72
2023/09/09 03:54:10;;;;;;;107.00;42.97;;;;;;;16.95;100.00;101664.09;6065849;19;20243;-71
2023/09/09 03:56:15;;;;;;;106.88;42.33;;;;;;;16.97;100.00;101668.38;6080591;19;20014;-73
2023/09/09 03:58:20;;;;;;;105.90;46.15;;;;;;;16.94;100.00;101668.56;6078994;19;20531;-73
2023/09/09 04:00:25;;;;;;;114.40;44.80;;;;;;;16.95;100.00;101669.41;6081123;19;20424;-72
2023/09/09 04:02:30;;;;;;;100.75;43.50;;;;;;;16.97;100.00;101673.69;6078500;19;20305;-72
2023/09/09 04:04:35;;;;;;;120.25;44.40;;;;;;;17.01;100.00;101674.38;6079092;19;20518;-74
2023/09/09 04:06:41;;;;;;;124.40;47.88;;;;;;;16.96;100.00;101677.31;6077845;19;20010;-73
2023/09/09 04:08:46;;;;;;;103.93;43.25;;;;;;;16.97;100.00;101675.50;6075107;19;20011;-72
2023/09/09 04:10:51;;;;;;;113.75;47.47;;;;;;;16.95;100.00;101670.25;6077868;19;20775;-73
2023/09/09 04:13:00;;;;;;;104.13;43.97;;;;;;;16.96;100.00;101677.31;6077481;19;20378;-73
2023/09/09 04:15:05;;;;;;;99.40;42.95;;;;;;;16.95;100.00;101672.91;6077507;19;20007;-73
2023/09/09 04:17:11;;;;;;;96.25;44.30;;;;;;;16.91;100.00;101670.53;6081470;19;19994;-73
2023/09/09 04:19:16;;;;;;;97.15;42.78;;;;;;;16.91;100.00;101673.19;6077731;19;20489;-71
2023/09/09 04:21:21;;;;;;;114.57;46.00;;;;;;;16.93;100.00;101674.81;6075351;19;20066;-71
2023/09/09 04:23:28;;;;;;;114.75;46.08;;;;;;;16.98;100.00;101680.75;6074980;19;20011;-71
2023/09/09 04:25:34;;;;;;;121.40;45.85;;;;;;;16.99;100.00;101676.28;6075970;19;20017;-73
2023/09/09 04:27:41;;;;;;;121.85;48.58;;;;;;;16.93;100.00;101674.81;6076925;19;20307;-73
2023/09/09 04:29:47;;;;;;;126.63;46.53;;;;;;;16.92;100.00;101670.44;6080374;19;20010;-73
2023/09/09 04:31:52;;;;;;;106.97;46.17;;;;;;;16.90;100.00;101669.66;6082016;19;20673;-72
2023/09/09 04:33:58;;;;;;;113.53;45.95;;;;;;;16.89;100.00;101670.59;6080974;19;20240;-71
2023/09/09 04:36:03;;;;;;;106.32;45.10;;;;;;;16.91;100.00;101687.31;6082523;19;20159;-72
2023/09/09 04:38:09;;;;;;;108.00;44.95;;;;;;;16.92;100.00;101680.19;6075679;19;20114;-71
2023/09/09 04:40:15;;;;;;;106.70;44.22;;;;;;;16.92;100.00;101681.03;6079556;19;20007;-72
2023/09/09 04:42:18;;;;;;;112.18;45.00;;;;;;;16.92;100.00;101678.38;6075354;19;20014;-73
2023/09/09 04:44:28;;;;;;;109.85;42.15;;;;;;;16.94;100.00;101681.81;6080398;19;24948;-72
2023/09/09 04:46:34;;;;;;;119.45;49.10;;;;;;;16.99;100.00;101684.25;6079953;19;20479;-72
2023/09/09 04:48:39;;;;;;;114.13;46.75;;;;;;;16.96;100.00;101681.75;6077370;19;20409;-72
2023/09/09 04:50:45;;;;;;;99.30;46.50;;;;;;;16.95;100.00;101680.88;6075914;19;20006;-72
2023/09/09 04:52:48;;;;;;;126.07;50.70;;;;;;;16.94;100.00;101681.81;6067338;19;20502;-72
2023/09/09 04:54:53;;;;;;;112.45;48.22;;;;;;;16.94;100.00;101683.63;6076308;19;20015;-73
2023/09/09 04:56:58;;;;;;;122.80;50.97;;;;;;;16.93;100.00;101689.88;6076826;19;20085;-71
2023/09/09 04:59:03;;;;;;;107.50;48.63;;;;;;;16.91;100.00;101692.63;6078817;19;20006;-71
2023/09/09 05:01:09;;;;;;;117.45;50.35;;;;;;;16.96;100.00;101689.72;6078310;19;20519;-68
2023/09/09 05:03:17;;;;;;;124.22;52.17;;;;;;;16.95;100.00;101685.34;6077300;19;20043;-68
2023/09/09 05:05:22;;;;;;;108.80;49.78;;;;;;;16.98;100.00;101690.47;6078350;19;20019;-69
2023/09/09 05:07:29;;;;;;;123.65;56.30;;;;;;;17.02;100.00;101695.53;6078316;19;20015;-69
2023/09/09 05:09:35;;;;;;;114.68;53.10;;;;;;;17.03;100.00;101694.59;6080279;19;20286;-68
2023/09/09 05:11:40;;;;;;;136.40;56.80;;;;;;;17.02;100.00;101698.19;6080396;19;20035;-69
2023/09/09 05:13:47;;;;;;;116.72;53.55;;;;;;;17.07;100.00;101703.28;6078576;19;20047;-69
2023/09/09 05:15:55;;;;;;;124.78;54.97;;;;;;;17.09;100.00;101699.59;6074664;19;20062;-69
2023/09/09 05:18:03;;;;;;;137.73;59.45;;;;;;;17.13;100.00;101697.63;6076315;19;20412;-70
2023/09/09 05:20:07;;;;;;;131.88;54.63;;;;;;;17.13;100.00;101697.63;6068988;19;20684;-69
2023/09/09 05:22:12;;;;;;;131.73;58.17;;;;;;;17.09;100.00;101694.28;6074259;19;20387;-69
2023/09/09 05:24:17;;;;;;;146.82;64.60;;;;;;;17.11;100.00;101695.06;6075194;19;20031;-69
2023/09/09 05:26:24;;;;;;;125.47;55.05;;;;;;;17.13;100.00;101696.78;6074539;19;20388;-68
2023/09/09 05:28:32;;;;;;;146.80;61.78;;;;;;;17.05;100.00;101697.19;6071806;19;20444;-70
2023/09/09 05:30:40;;;;;;;129.95;63.08;;;;;;;17.09;100.00;101704.06;6074254;19;20625;-70
2023/09/09 05:32:48;;;;;;;116.80;59.72;;;;;;;17.07;100.00;101692.66;6074558;19;20038;-71
2023/09/09 05:34:58;;;;;;;131.38;61.47;;;;;;;17.10;100.00;101695.97;6071826;19;20007;-70
2023/09/09 05:37:03;;;;;;;126.47;63.95;;;;;;;17.13;100.00;101694.97;6073101;19;20006;-70
2023/09/09 05:39:08;;;;;;;121.97;62.58;;;;;;;17.17;100.00;101690.31;6069007;19;20081;-71
2023/09/09 05:41:13;;;;;;;133.77;66.10;;;;;;;17.20;100.00;101698.16;6072646;19;20027;-70
2023/09/09 05:43:18;;;;;;;144.27;69.63;;;;;;;17.15;100.00;101693.09;6071747;19;20018;-69
2023/09/09 05:45:23;;;;;;;137.95;68.78;;;;;;;17.18;100.00;101692.06;6073814;19;20055;-69
2023/09/09 05:47:29;;;;;;;137.70;67.00;;;;;;;17.14;100.00;101696.69;6077300;19;20082;-69
2023/09/09 05:49:37;;;;;;;133.23;64.75;;;;;;;17.17;100.00;101692.97;6078838;19;20142;-69
2023/09/09 05:51:44;;;;;;;139.23;67.10;;;;;;;17.14;100.00;101701.13;6076213;19;20681;-69
2023/09/09 05:53:50;;;;;;;126.53;65.30;;;;;;;17.17;100.00;101696.53;6064896;19;20432;-69
2023/09/09 05:55:55;;;;;;;126.30;59.85;;;;;;;17.24;100.00;101697.88;6067685;19;20014;-69
2023/09/09 05:58:00;;;;;;;126.03;64.18;;;;;;;17.27;100.00;101702.16;6077431;19;20036;-69
2023/09/09 06:00:07;;;;;;;128.50;67.82;;;;;;;17.31;100.00;101709.91;6071369;19;20098;-70
2023/09/09 06:02:12;;;;;;;123.80;62.63;;;;;;;17.39;100.00;101698.84;6072305;19;20011;-71
2023/09/09 06:04:18;;;;;;;133.60;63.88;;;;;;;17.50;100.00;101708.88;6078100;19;20006;-69
2023/09/09 06:06:24;;;;;;;118.07;60.78;;;;;;;17.60;100.00;101704.75;6072636;19;22272;-72
2023/09/09 06:08:31;;;;;;;129.05;64.55;;;;;;;17.73;100.00;101705.78;6074370;19;20140;-69
2023/09/09 06:10:37;;;;;;;132.20;66.13;;;;;;;17.80;100.00;101702.81;6073469;19;20390;-69
2023/09/09 06:12:42;;;;;;;141.40;66.95;;;;;;;17.82;100.00;101706.22;6073645;19;20003;-70
2023/09/09 06:14:48;;;;;;;125.25;60.80;;;;;;;17.93;100.00;101709.13;6070546;19;20478;-70
2023/09/09 06:16:54;;;;;;;140.38;67.88;;;;;;;18.10;100.00;101703.69;6069406;19;20010;-70
2023/09/09 06:18:59;;;;;;;115.35;59.33;;;;;;;18.22;100.00;101712.78;6075441;19;20003;-70
2023/09/09 06:21:04;;;;;;;120.70;61.40;;;;;;;18.34;100.00;101711.19;6077568;19;20213;-69
2023/09/09 06:23:09;;;;;;;138.23;65.38;;;;;;;18.47;100.00;101711.31;6072073;19;20541;-69
2023/09/09 06:25:17;;;;;;;130.63;64.75;;;;;;;18.60;100.00;101707.81;6072121;19;20298;-70
2023/09/09 06:27:23;;;;;;;130.45;62.90;;;;;;;18.73;100.00;101713.25;6074031;19;20496;-70
2023/09/09 06:29:29;;;;;;;128.85;64.75;;;;;;;18.82;100.00;101714.53;6072293;19;20550;-70
2023/09/09 06:31:34;;;;;;;139.70;68.80;;;;;;;18.95;100.00;101714.63;6075023;19;20034;-71
2023/09/09 06:33:39;;;;;;;139.82;66.05;;;;;;;19.00;100.00;101718.72;6076695;19;20082;-70
2023/09/09 06:35:51;;;;;;;139.82;68.53;;;;;;;19.11;100.00;101720.72;6074426;19;20147;-70
2023/09/09 06:38:00;;;;;;;127.65;65.25;;;;;;;19.20;100.00;101721.97;6078830;19;20231;-69
2023/09/09 06:40:07;;;;;;;124.70;64.07;;;;;;;19.32;100.00;101718.50;6069027;19;20795;-70
2023/09/09 06:42:15;;;;;;;141.73;71.25;;;;;;;19.40;100.00;101729.53;6077894;19;20014;-70
2023/09/09 06:44:20;;;;;;;127.72;61.13;;;;;;;19.57;100.00;101727.63;6079124;19;20031;-70
2023/09/09 06:46:26;;;;;;;125.70;64.72;;;;;;;19.65;100.00;101733.31;6073033;19;20048;-70
2023/09/09 06:48:31;;;;;;;127.07;62.55;;;;;;;19.79;100.00;101740.44;6074854;19;20505;-70
2023/09/09 06:50:36;;;;;;;129.88;66.80;;;;;;;19.85;100.00;101732.91;6075459;19;20018;-69
2023/09/09 06:52:42;;;;;;;136.70;68.05;;;;;;;20.04;100.00;101734.38;6078700;19;20805;-71
2023/09/09 06:54:47;;;;;;;145.98;72.30;;;;;;;20.11;100.00;101739.16;6074697;19;20017;-70
2023/09/09 06:56:52;;;;;;;146.40;73.90;;;;;;;20.24;100.00;101735.69;6080146;19;20011;-69
2023/09/09 06:59:03;;;;;;;142.20;70.10;;;;;;;20.46;100.00;101737.75;6066992;19;20007;-69
2023/09/09 07:01:10;;;;;;;134.77;70.82;;;;;;;20.63;100.00;101732.16;6079927;19;20011;-69
2023/09/09 07:03:18;;;;;;;135.00;71.93;;;;;;;20.75;100.00;101730.47;6083165;19;20295;-72
2023/09/09 07:05:27;;;;;;;127.72;68.05;;;;;;;20.78;100.00;101736.47;6078538;19;20039;-72
2023/09/09 07:07:32;;;;;;;142.18;72.72;;;;;;;21.05;100.00;101739.00;6085138;19;20031;-71
2023/09/09 07:09:46;;;;;;;141.13;74.47;;;;;;;21.20;100.00;101738.91;6083625;19;20436;-71
2023/09/09 07:11:53;;;;;;;129.10;70.43;;;;;;;21.43;100.00;101732.78;6081186;19;20342;-71
2023/09/09 07:14:04;;;;;;;131.82;71.28;;;;;;;21.55;100.00;101735.53;6082288;19;20397;-71
2023/09/09 07:16:09;;;;;;;139.80;73.13;;;;;;;21.76;100.00;101742.00;6078178;19;20328;-71
2023/09/09 07:18:16;;;;;;;131.65;71.57;;;;;;;21.82;100.00;101749.56;6085861;19;20014;-72
2023/09/09 07:20:26;;;;;;;123.97;65.68;;;;;;;22.09;100.00;101745.78;6076694;19;20318;-70
2023/09/09 07:22:38;;;;;;;137.23;71.18;;;;;;;22.19;100.00;101744.16;6064283;19;20017;-72
2023/09/09 07:24:50;;;;;;;120.82;65.40;;;;;;;22.41;100.00;101742.53;6076482;19;20562;-72
2023/09/09 07:27:03;;;;;;;135.68;71.10;;;;;;;22.56;100.00;101744.94;6071392;19;20456;-71
2023/09/09 07:29:14;;;;;;;126.50;67.82;;;;;;;22.60;99.13;101734.81;6071839;19;20014;-71
2023/09/09 07:31:27;;;;;;;111.18;63.55;;;;;;;22.86;99.63;101740.84;6071381;19;20526;-71
2023/09/09 07:33:32;;;;;;;;;;;;;;;23.08;98.29;101745.38;6055880;19;20015;-72
2023/09/09 07:35:38;;;;;;;109.13;59.35;;;;;;;23.24;98.43;101750.38;6078803;19;19947;-74
2023/09/09 07:37:49;;;;;;;112.55;62.50;;;;;;;23.44;97.68;101740.75;6076305;19;20047;-73
2023/09/09 07:39:59;;;;;;;100.72;59.45;;;;;;;23.59;95.03;101744.88;6077851;19;20035;-74
2023/09/09 07:42:04;;;;;;;96.53;56.55;;;;;;;23.62;92.97;101739.25;6059769;19;20011;-72
2023/09/09 07:44:12;;;;;;;94.10;53.13;;;;;;;23.90;93.47;101746.88;6076437;19;20038;-72
2023/09/09 07:46:18;;;;;;;86.03;52.10;;;;;;;23.85;88.42;101745.44;6076611;19;20064;-73
2023/09/09 07:48:24;;;;;;;80.45;48.97;;;;;;;23.84;90.29;101741.03;6070270;19;20453;-72
2023/09/09 07:50:29;;;;;;;89.85;51.88;;;;;;;24.22;89.29;101742.34;6072556;19;20021;-73
2023/09/09 07:52:32;;;;;;;85.57;51.47;;;;;;;24.35;87.12;101742.19;6072979;19;20225;-73
2023/09/09 07:54:39;;;;;;;80.45;47.72;;;;;;;24.59;87.96;101749.16;6075390;19;20015;-72
2023/09/09 07:56:48;;;;;;;91.75;51.67;;;;;;;24.71;84.71;101748.13;6072240;19;20703;-73
2023/09/09 07:58:59;;;;;;;71.88;44.45;;;;;;;24.86;83.12;101745.97;6073980;19;20005;-73
2023/09/09 08:01:13;;;;;;;67.63;41.33;;;;;;;24.63;82.56;101746.09;6066227;19;20326;-73
2023/09/09 08:03:19;;;;;;;62.42;39.45;;;;;;;24.50;78.23;101746.28;6067552;19;20259;-73
2023/09/09 08:05:24;;;;;;;68.05;40.40;;;;;;;24.91;80.94;101746.41;6063986;19;20361;-72
2023/09/09 08:07:32;;;;;;;60.50;39.25;;;;;;;25.23;80.81;101749.00;6065968;19;20507;-72
2023/09/09 08:09:38;;;;;;;66.40;40.03;;;;;;;25.21;77.15;101744.72;6065144;19;20098;-73
2023/09/09 08:11:47;;;;;;;61.70;37.80;;;;;;;25.46;76.02;101751.47;6066314;19;20070;-72
2023/09/09 08:13:52;;;;;;;57.47;36.05;;;;;;;25.62;75.38;101743.72;6072397;19;20007;-73
2023/09/09 08:15:57;;;;;;;50.58;32.33;;;;;;;25.75;73.69;101747.00;6071616;19;20400;-73
2023/09/09 08:18:06;;;;;;;48.97;30.90;;;;;;;25.99;73.91;101751.19;6076523;19;20042;-73
2023/09/09 08:20:12;;;;;;;49.15;32.30;;;;;;;25.90;70.07;101757.41;6070075;19;20010;-73
2023/09/09 08:22:17;;;;;;;57.05;36.60;;;;;;;25.81;71.91;101745.59;6072539;19;20031;-73
2023/09/09 08:24:22;;;;;;;46.90;31.77;;;;;;;26.08;70.95;101755.72;6071004;19;20011;-72
2023/09/09 08:26:26;;;;;;;49.25;30.38;;;;;;;26.10;69.25;101755.59;6069493;19;20014;-72
2023/09/09 08:28:31;;;;;;;44.58;30.45;;;;;;;26.16;70.06;101750.47;6053114;19;20093;-72
2023/09/09 08:30:38;;;;;;;47.47;30.20;;;;;;;26.23;69.54;101748.91;6069006;19;20019;-72
2023/09/09 08:32:44;;;;;;;48.47;29.23;;;;;;;26.35;68.17;101757.69;6065652;19;20010;-72
2023/09/09 08:34:55;;;;;;;44.20;28.17;;;;;;;26.52;68.90;101750.78;6070005;19;20010;-73
2023/09/09 08:37:01;;;;;;;48.45;28.35;;;;;;;26.63;66.48;101753.28;6066337;19;20243;-74
2023/09/09 08:39:06;;;;;;;39.88;24.70;;;;;;;26.79;65.72;101754.53;6058089;19;20117;-74
2023/09/09 08:41:17;;;;;;;37.35;25.00;;;;;;;26.89;65.03;101760.75;6066836;19;20404;-72
2023/09/09 08:43:31;;;;;;;32.30;20.98;;;;;;;27.25;62.65;101771.72;6064717;19;20417;-73
2023/09/09 08:45:42;;;;;;;32.83;20.25;;;;;;;27.46;63.31;101768.78;6063921;19;20010;-73
2023/09/09 08:47:50;;;;;;;26.80;19.23;;;;;;;27.44;62.85;101771.66;6058413;19;20495;-73
2023/09/09 08:50:06;;;;;;;32.15;22.30;;;;;;;27.43;61.53;101769.09;6071060;19;20018;-72
2023/09/09 08:52:19;;;;;;;32.90;21.25;;;;;;;27.65;60.70;101771.41;6056260;19;20554;-71
2023/09/09 08:54:24;;;;;;;;;;;;;;;27.75;61.04;101771.31;6066241;19;20038;-73
2023/09/09 08:56:31;;;;;;;36.35;21.63;;;;;;;27.74;62.16;101772.31;6061372;19;19918;-72
2023/09/09 08:58:36;;;;;;;36.58;22.48;;;;;;;27.87;59.88;101772.84;6068002;19;20319;-73
2023/09/09 09:00:41;;;;;;;35.60;20.65;;;;;;;27.85;60.49;101765.88;6070159;19;20018;-72
2023/09/09 09:02:48;;;;;;;34.72;23.02;;;;;;;27.85;60.98;101768.59;6069070;19;20389;-72
2023/09/09 09:04:58;;;;;;;27.90;18.85;;;;;;;27.99;57.33;101773.47;6066808;19;20014;-72
2023/09/09 09:07:05;;;;;;;30.48;18.33;;;;;;;28.29;56.29;101774.09;6068853;19;20417;-74
2023/09/09 09:09:11;;;;;;;26.88;18.08;;;;;;;28.40;56.31;101779.25;6068292;19;20015;-72
2023/09/09 09:11:17;;;;;;;26.27;17.63;;;;;;;28.34;56.23;101775.31;6071278;19;20569;-72
2023/09/09 09:13:24;;;;;;;26.95;17.50;;;;;;;28.09;55.99;101779.63;6065960;19;20656;-72
2023/09/09 09:15:38;;;;;;;22.40;15.85;;;;;;;28.21;55.49;101781.09;6070960;19;20086;-73
2023/09/09 09:17:44;;;;;;;20.90;14.32;;;;;;;28.63;55.78;101777.78;6067952;19;20018;-72
2023/09/09 09:19:49;;;;;;;22.15;14.38;;;;;;;28.76;53.73;101782.78;6074267;19;20006;-72
2023/09/09 09:22:00;;;;;;;22.55;14.93;;;;;;;28.80;54.62;101781.44;6065846;19;20410;-72
2023/09/09 09:24:06;;;;;;;21.52;13.73;;;;;;;28.91;53.25;101777.59;6066941;19;21358;-72